sensor_id;sensor_type;location;lat;lon;timestamp;P1;durP1;ratioP1;P2;durP2;ratioP2
41661;SDS011;27351;45.992;12.666;2023-04-24T00:01:11;13.57;;;9.33;;
41661;SDS011;27351;45.992;12.666;2023-04-24T00:03:38;12.07;;;8.43;;
41661;SDS011;27351;45.992;12.666;2023-04-24T00:06:04;12.88;;;8.88;;
41661;SDS011;27351;45.992;12.666;2023-04-24T00:08:32;13.63;;;8.80;;
41661;SDS011;27351;45.992;12.666;2023-04-24T00:10:57;13.90;;;9.17;;
41661;SDS011;27351;45.992;12.666;2023-04-24T00:13:23;12.73;;;8.80;;
41661;SDS011;27351;45.992;12.666;2023-04-24T00:15:48;12.33;;;8.50;;
41661;SDS011;27351;45.992;12.666;2023-04-24T00:18:14;10.85;;;7.97;;
41661;SDS011;27351;45.992;12.666;2023-04-24T00:20:39;13.05;;;7.90;;
41661;SDS011;27351;45.992;12.666;2023-04-24T00:23:05;13.20;;;8.73;;
41661;SDS011;27351;45.992;12.666;2023-04-24T00:25:31;12.77;;;9.00;;
41661;SDS011;27351;45.992;12.666;2023-04-24T00:27:56;13.17;;;9.17;;
41661;SDS011;27351;45.992;12.666;2023-04-24T00:30:22;13.17;;;9.10;;
41661;SDS011;27351;45.992;12.666;2023-04-24T00:32:47;13.15;;;9.50;;
41661;SDS011;27351;45.992;12.666;2023-04-24T00:35:13;13.55;;;9.48;;
41661;SDS011;27351;45.992;12.666;2023-04-24T00:37:39;13.32;;;8.93;;
41661;SDS011;27351;45.992;12.666;2023-04-24T00:40:05;14.52;;;9.05;;
41661;SDS011;27351;45.992;12.666;2023-04-24T00:42:31;12.52;;;8.40;;
41661;SDS011;27351;45.992;12.666;2023-04-24T00:44:56;11.98;;;7.95;;
41661;SDS011;27351;45.992;12.666;2023-04-24T00:47:22;13.27;;;7.85;;
41661;SDS011;27351;45.992;12.666;2023-04-24T00:49:49;11.65;;;7.90;;
41661;SDS011;27351;45.992;12.666;2023-04-24T00:52:14;10.63;;;6.97;;
41661;SDS011;27351;45.992;12.666;2023-04-24T00:54:45;11.73;;;7.00;;
41661;SDS011;27351;45.992;12.666;2023-04-24T00:57:12;10.55;;;6.95;;
41661;SDS011;27351;45.992;12.666;2023-04-24T00:59:40;10.77;;;6.70;;
41661;SDS011;27351;45.992;12.666;2023-04-24T01:02:07;10.80;;;6.50;;
41661;SDS011;27351;45.992;12.666;2023-04-24T01:04:32;11.23;;;6.90;;
41661;SDS011;27351;45.992;12.666;2023-04-24T01:06:58;10.40;;;6.47;;
41661;SDS011;27351;45.992;12.666;2023-04-24T01:09:23;9.77;;;6.93;;
41661;SDS011;27351;45.992;12.666;2023-04-24T01:11:50;9.43;;;6.55;;
41661;SDS011;27351;45.992;12.666;2023-04-24T01:14:15;11.30;;;6.60;;
41661;SDS011;27351;45.992;12.666;2023-04-24T01:16:41;9.07;;;6.00;;
41661;SDS011;27351;45.992;12.666;2023-04-24T01:19:07;9.68;;;5.97;;
41661;SDS011;27351;45.992;12.666;2023-04-24T01:21:34;8.30;;;5.60;;
41661;SDS011;27351;45.992;12.666;2023-04-24T01:24:02;8.80;;;5.70;;
41661;SDS011;27351;45.992;12.666;2023-04-24T01:26:27;10.53;;;6.10;;
41661;SDS011;27351;45.992;12.666;2023-04-24T01:28:53;9.23;;;5.77;;
41661;SDS011;27351;45.992;12.666;2023-04-24T01:31:18;9.13;;;5.57;;
41661;SDS011;27351;45.992;12.666;2023-04-24T01:33:44;9.13;;;5.20;;
41661;SDS011;27351;45.992;12.666;2023-04-24T01:36:10;9.57;;;5.38;;
41661;SDS011;27351;45.992;12.666;2023-04-24T01:38:36;9.40;;;5.90;;
41661;SDS011;27351;45.992;12.666;2023-04-24T01:41:02;9.35;;;5.93;;
41661;SDS011;27351;45.992;12.666;2023-04-24T01:43:28;9.33;;;5.33;;
41661;SDS011;27351;45.992;12.666;2023-04-24T01:45:56;8.32;;;5.43;;
41661;SDS011;27351;45.992;12.666;2023-04-24T01:48:22;8.93;;;5.93;;
41661;SDS011;27351;45.992;12.666;2023-04-24T01:50:48;9.37;;;5.67;;
41661;SDS011;27351;45.992;12.666;2023-04-24T01:53:13;9.73;;;5.87;;
41661;SDS011;27351;45.992;12.666;2023-04-24T01:55:39;8.80;;;5.67;;
41661;SDS011;27351;45.992;12.666;2023-04-24T01:58:05;11.70;;;5.93;;
41661;SDS011;27351;45.992;12.666;2023-04-24T02:00:31;9.30;;;5.60;;
41661;SDS011;27351;45.992;12.666;2023-04-24T02:02:56;9.07;;;5.50;;
41661;SDS011;27351;45.992;12.666;2023-04-24T02:05:24;10.27;;;6.22;;
41661;SDS011;27351;45.992;12.666;2023-04-24T02:07:50;9.33;;;5.90;;
41661;SDS011;27351;45.992;12.666;2023-04-24T02:10:15;8.63;;;5.30;;
41661;SDS011;27351;45.992;12.666;2023-04-24T02:12:41;9.13;;;5.57;;
41661;SDS011;27351;45.992;12.666;2023-04-24T02:15:07;8.90;;;5.73;;
41661;SDS011;27351;45.992;12.666;2023-04-24T02:17:36;8.98;;;5.13;;
41661;SDS011;27351;45.992;12.666;2023-04-24T02:20:03;8.35;;;5.57;;
41661;SDS011;27351;45.992;12.666;2023-04-24T02:22:30;9.35;;;6.20;;
41661;SDS011;27351;45.992;12.666;2023-04-24T02:24:56;9.33;;;5.90;;
41661;SDS011;27351;45.992;12.666;2023-04-24T02:27:21;9.70;;;6.27;;
41661;SDS011;27351;45.992;12.666;2023-04-24T02:29:47;9.90;;;6.55;;
41661;SDS011;27351;45.992;12.666;2023-04-24T02:32:12;9.50;;;6.75;;
41661;SDS011;27351;45.992;12.666;2023-04-24T02:34:42;10.37;;;6.50;;
41661;SDS011;27351;45.992;12.666;2023-04-24T02:37:08;9.20;;;6.23;;
41661;SDS011;27351;45.992;12.666;2023-04-24T02:39:35;10.82;;;6.50;;
41661;SDS011;27351;45.992;12.666;2023-04-24T02:42:01;9.70;;;6.20;;
41661;SDS011;27351;45.992;12.666;2023-04-24T02:44:26;10.60;;;6.90;;
41661;SDS011;27351;45.992;12.666;2023-04-24T02:46:52;10.10;;;6.35;;
41661;SDS011;27351;45.992;12.666;2023-04-24T02:49:18;9.57;;;6.57;;
41661;SDS011;27351;45.992;12.666;2023-04-24T02:51:43;9.73;;;6.17;;
41661;SDS011;27351;45.992;12.666;2023-04-24T02:54:09;10.20;;;6.23;;
41661;SDS011;27351;45.992;12.666;2023-04-24T02:56:37;11.68;;;5.95;;
41661;SDS011;27351;45.992;12.666;2023-04-24T02:59:05;9.43;;;6.32;;
41661;SDS011;27351;45.992;12.666;2023-04-24T03:01:30;9.65;;;6.10;;
41661;SDS011;27351;45.992;12.666;2023-04-24T03:03:56;10.80;;;6.40;;
41661;SDS011;27351;45.992;12.666;2023-04-24T03:06:22;9.00;;;5.63;;
41661;SDS011;27351;45.992;12.666;2023-04-24T03:08:47;10.77;;;6.30;;
41661;SDS011;27351;45.992;12.666;2023-04-24T03:11:13;10.40;;;6.13;;
41661;SDS011;27351;45.992;12.666;2023-04-24T03:13:40;9.27;;;6.03;;
41661;SDS011;27351;45.992;12.666;2023-04-24T03:16:06;10.82;;;6.93;;
41661;SDS011;27351;45.992;12.666;2023-04-24T03:18:31;10.20;;;6.07;;
41661;SDS011;27351;45.992;12.666;2023-04-24T03:20:57;11.03;;;6.37;;
41661;SDS011;27351;45.992;12.666;2023-04-24T03:23:23;10.67;;;6.10;;
41661;SDS011;27351;45.992;12.666;2023-04-24T03:25:48;10.10;;;6.33;;
41661;SDS011;27351;45.992;12.666;2023-04-24T03:28:15;9.75;;;6.10;;
41661;SDS011;27351;45.992;12.666;2023-04-24T03:30:49;8.48;;;5.70;;
41661;SDS011;27351;45.992;12.666;2023-04-24T03:33:16;10.52;;;5.90;;
41661;SDS011;27351;45.992;12.666;2023-04-24T03:35:53;8.73;;;5.43;;
41661;SDS011;27351;45.992;12.666;2023-04-24T03:38:18;9.63;;;5.70;;
41661;SDS011;27351;45.992;12.666;2023-04-24T03:40:54;11.13;;;5.93;;
41661;SDS011;27351;45.992;12.666;2023-04-24T03:43:35;9.27;;;5.72;;
41661;SDS011;27351;45.992;12.666;2023-04-24T03:46:02;8.93;;;6.03;;
41661;SDS011;27351;45.992;12.666;2023-04-24T03:48:29;9.98;;;5.72;;
41661;SDS011;27351;45.992;12.666;2023-04-24T03:50:55;10.23;;;5.95;;
41661;SDS011;27351;45.992;12.666;2023-04-24T03:53:21;11.30;;;5.93;;
41661;SDS011;27351;45.992;12.666;2023-04-24T03:55:48;9.30;;;6.20;;
41661;SDS011;27351;45.992;12.666;2023-04-24T03:58:14;10.57;;;6.27;;
41661;SDS011;27351;45.992;12.666;2023-04-24T04:00:40;8.77;;;5.78;;
41661;SDS011;27351;45.992;12.666;2023-04-24T04:03:32;8.55;;;5.50;;
41661;SDS011;27351;45.992;12.666;2023-04-24T04:05:57;9.25;;;5.60;;
41661;SDS011;27351;45.992;12.666;2023-04-24T04:08:23;9.45;;;5.57;;
41661;SDS011;27351;45.992;12.666;2023-04-24T04:10:48;9.40;;;5.80;;
41661;SDS011;27351;45.992;12.666;2023-04-24T04:13:14;9.17;;;5.80;;
41661;SDS011;27351;45.992;12.666;2023-04-24T04:15:40;9.70;;;5.97;;
41661;SDS011;27351;45.992;12.666;2023-04-24T04:18:05;8.97;;;5.50;;
41661;SDS011;27351;45.992;12.666;2023-04-24T04:20:32;10.18;;;6.28;;
41661;SDS011;27351;45.992;12.666;2023-04-24T04:22:58;9.57;;;6.03;;
41661;SDS011;27351;45.992;12.666;2023-04-24T04:25:35;11.65;;;5.95;;
41661;SDS011;27351;45.992;12.666;2023-04-24T04:28:01;10.30;;;6.15;;
41661;SDS011;27351;45.992;12.666;2023-04-24T04:30:27;9.23;;;5.90;;
41661;SDS011;27351;45.992;12.666;2023-04-24T04:33:00;10.70;;;5.63;;
41661;SDS011;27351;45.992;12.666;2023-04-24T04:35:26;9.23;;;5.85;;
41661;SDS011;27351;45.992;12.666;2023-04-24T04:37:52;10.82;;;6.05;;
41661;SDS011;27351;45.992;12.666;2023-04-24T04:40:31;12.93;;;5.85;;
41661;SDS011;27351;45.992;12.666;2023-04-24T04:43:02;8.43;;;5.63;;
41661;SDS011;27351;45.992;12.666;2023-04-24T04:45:33;9.45;;;5.57;;
41661;SDS011;27351;45.992;12.666;2023-04-24T04:48:38;10.82;;;5.68;;
41661;SDS011;27351;45.992;12.666;2023-04-24T04:51:05;9.95;;;5.35;;
41661;SDS011;27351;45.992;12.666;2023-04-24T04:53:31;11.88;;;6.65;;
41661;SDS011;27351;45.992;12.666;2023-04-24T04:55:57;10.32;;;5.68;;
41661;SDS011;27351;45.992;12.666;2023-04-24T04:58:27;8.50;;;5.50;;
41661;SDS011;27351;45.992;12.666;2023-04-24T05:00:56;8.80;;;5.50;;
41661;SDS011;27351;45.992;12.666;2023-04-24T05:03:30;11.13;;;6.82;;
41661;SDS011;27351;45.992;12.666;2023-04-24T05:06:05;11.25;;;6.15;;
41661;SDS011;27351;45.992;12.666;2023-04-24T05:08:34;9.77;;;5.68;;
41661;SDS011;27351;45.992;12.666;2023-04-24T05:10:59;11.50;;;5.07;;
41661;SDS011;27351;45.992;12.666;2023-04-24T05:13:27;8.70;;;5.40;;
41661;SDS011;27351;45.992;12.666;2023-04-24T05:15:53;9.43;;;5.53;;
41661;SDS011;27351;45.992;12.666;2023-04-24T05:18:19;9.52;;;5.80;;
41661;SDS011;27351;45.992;12.666;2023-04-24T05:20:45;9.50;;;5.60;;
41661;SDS011;27351;45.992;12.666;2023-04-24T05:23:11;8.93;;;5.40;;
41661;SDS011;27351;45.992;12.666;2023-04-24T05:25:40;10.23;;;5.60;;
41661;SDS011;27351;45.992;12.666;2023-04-24T05:28:10;9.05;;;5.38;;
41661;SDS011;27351;45.992;12.666;2023-04-24T05:30:37;10.35;;;5.95;;
41661;SDS011;27351;45.992;12.666;2023-04-24T05:33:02;8.52;;;5.60;;
41661;SDS011;27351;45.992;12.666;2023-04-24T05:35:29;11.70;;;5.57;;
41661;SDS011;27351;45.992;12.666;2023-04-24T05:37:55;9.13;;;5.47;;
41661;SDS011;27351;45.992;12.666;2023-04-24T05:40:21;9.55;;;5.45;;
41661;SDS011;27351;45.992;12.666;2023-04-24T05:42:47;11.33;;;5.60;;
41661;SDS011;27351;45.992;12.666;2023-04-24T05:45:12;10.03;;;5.47;;
41661;SDS011;27351;45.992;12.666;2023-04-24T05:47:43;10.27;;;5.75;;
41661;SDS011;27351;45.992;12.666;2023-04-24T05:50:11;9.90;;;5.25;;
41661;SDS011;27351;45.992;12.666;2023-04-24T05:52:37;12.43;;;5.93;;
41661;SDS011;27351;45.992;12.666;2023-04-24T05:55:09;9.73;;;5.80;;
41661;SDS011;27351;45.992;12.666;2023-04-24T05:57:37;11.73;;;5.78;;
41661;SDS011;27351;45.992;12.666;2023-04-24T06:00:03;9.52;;;6.57;;
41661;SDS011;27351;45.992;12.666;2023-04-24T06:02:38;10.48;;;5.68;;
41661;SDS011;27351;45.992;12.666;2023-04-24T06:05:06;10.95;;;6.75;;
41661;SDS011;27351;45.992;12.666;2023-04-24T06:07:33;11.87;;;5.80;;
41661;SDS011;27351;45.992;12.666;2023-04-24T06:10:02;11.50;;;6.40;;
41661;SDS011;27351;45.992;12.666;2023-04-24T06:12:33;9.73;;;5.90;;
41661;SDS011;27351;45.992;12.666;2023-04-24T06:15:05;11.07;;;6.15;;
41661;SDS011;27351;45.992;12.666;2023-04-24T06:17:48;10.88;;;7.15;;
41661;SDS011;27351;45.992;12.666;2023-04-24T06:20:15;15.07;;;9.63;;
41661;SDS011;27351;45.992;12.666;2023-04-24T06:22:41;14.55;;;9.05;;
41661;SDS011;27351;45.992;12.666;2023-04-24T06:25:06;11.03;;;6.87;;
41661;SDS011;27351;45.992;12.666;2023-04-24T06:27:32;10.50;;;6.60;;
41661;SDS011;27351;45.992;12.666;2023-04-24T06:29:58;10.65;;;6.28;;
41661;SDS011;27351;45.992;12.666;2023-04-24T06:32:23;11.20;;;6.27;;
41661;SDS011;27351;45.992;12.666;2023-04-24T06:34:50;11.53;;;7.20;;
41661;SDS011;27351;45.992;12.666;2023-04-24T06:37:16;11.52;;;6.95;;
41661;SDS011;27351;45.992;12.666;2023-04-24T06:39:42;11.47;;;6.97;;
41661;SDS011;27351;45.992;12.666;2023-04-24T06:42:07;11.00;;;7.00;;
41661;SDS011;27351;45.992;12.666;2023-04-24T06:44:35;11.05;;;7.22;;
41661;SDS011;27351;45.992;12.666;2023-04-24T06:47:06;12.88;;;7.45;;
41661;SDS011;27351;45.992;12.666;2023-04-24T06:49:33;14.30;;;8.07;;
41661;SDS011;27351;45.992;12.666;2023-04-24T06:51:58;12.63;;;7.80;;
41661;SDS011;27351;45.992;12.666;2023-04-24T06:54:24;14.60;;;7.27;;
41661;SDS011;27351;45.992;12.666;2023-04-24T06:56:49;15.10;;;7.40;;
41661;SDS011;27351;45.992;12.666;2023-04-24T06:59:16;12.30;;;7.10;;
41661;SDS011;27351;45.992;12.666;2023-04-24T07:01:42;12.83;;;7.50;;
41661;SDS011;27351;45.992;12.666;2023-04-24T07:04:07;11.90;;;6.95;;
41661;SDS011;27351;45.992;12.666;2023-04-24T07:06:33;13.32;;;7.57;;
41661;SDS011;27351;45.992;12.666;2023-04-24T07:08:58;14.17;;;7.90;;
41661;SDS011;27351;45.992;12.666;2023-04-24T07:11:25;13.52;;;7.90;;
41661;SDS011;27351;45.992;12.666;2023-04-24T07:13:54;16.47;;;8.23;;
41661;SDS011;27351;45.992;12.666;2023-04-24T07:16:20;14.82;;;7.25;;
41661;SDS011;27351;45.992;12.666;2023-04-24T07:18:46;16.90;;;10.20;;
41661;SDS011;27351;45.992;12.666;2023-04-24T07:21:11;17.08;;;12.27;;
41661;SDS011;27351;45.992;12.666;2023-04-24T07:23:37;15.40;;;8.88;;
41661;SDS011;27351;45.992;12.666;2023-04-24T07:26:02;13.77;;;8.13;;
41661;SDS011;27351;45.992;12.666;2023-04-24T07:28:28;14.60;;;8.00;;
41661;SDS011;27351;45.992;12.666;2023-04-24T07:30:56;14.65;;;7.53;;
41661;SDS011;27351;45.992;12.666;2023-04-24T07:33:22;16.95;;;9.35;;
41661;SDS011;27351;45.992;12.666;2023-04-24T07:35:48;14.37;;;8.33;;
41661;SDS011;27351;45.992;12.666;2023-04-24T07:38:14;14.90;;;8.73;;
41661;SDS011;27351;45.992;12.666;2023-04-24T07:40:39;14.80;;;8.18;;
41661;SDS011;27351;45.992;12.666;2023-04-24T07:43:05;15.97;;;8.73;;
41661;SDS011;27351;45.992;12.666;2023-04-24T07:45:30;18.50;;;9.20;;
41661;SDS011;27351;45.992;12.666;2023-04-24T07:47:59;14.65;;;9.18;;
41661;SDS011;27351;45.992;12.666;2023-04-24T07:50:26;14.50;;;8.80;;
41661;SDS011;27351;45.992;12.666;2023-04-24T07:52:52;14.07;;;7.93;;
41661;SDS011;27351;45.992;12.666;2023-04-24T07:55:17;13.83;;;8.80;;
41661;SDS011;27351;45.992;12.666;2023-04-24T07:57:43;13.50;;;8.53;;
41661;SDS011;27351;45.992;12.666;2023-04-24T08:00:08;13.93;;;8.88;;
41661;SDS011;27351;45.992;12.666;2023-04-24T08:02:38;15.38;;;8.90;;
41661;SDS011;27351;45.992;12.666;2023-04-24T08:05:04;13.30;;;8.63;;
41661;SDS011;27351;45.992;12.666;2023-04-24T08:07:30;15.35;;;8.95;;
41661;SDS011;27351;45.992;12.666;2023-04-24T08:09:56;13.35;;;8.55;;
41661;SDS011;27351;45.992;12.666;2023-04-24T08:12:22;14.93;;;9.45;;
41661;SDS011;27351;45.992;12.666;2023-04-24T08:14:48;20.27;;;9.45;;
41661;SDS011;27351;45.992;12.666;2023-04-24T08:17:13;15.80;;;8.73;;
41661;SDS011;27351;45.992;12.666;2023-04-24T08:19:42;16.50;;;9.17;;
41661;SDS011;27351;45.992;12.666;2023-04-24T08:22:13;13.20;;;8.60;;
41661;SDS011;27351;45.992;12.666;2023-04-24T08:24:38;17.90;;;9.13;;
41661;SDS011;27351;45.992;12.666;2023-04-24T08:27:04;14.15;;;8.93;;
41661;SDS011;27351;45.992;12.666;2023-04-24T08:29:30;14.53;;;8.43;;
41661;SDS011;27351;45.992;12.666;2023-04-24T08:31:55;13.50;;;8.20;;
41661;SDS011;27351;45.992;12.666;2023-04-24T08:34:21;15.20;;;8.83;;
41661;SDS011;27351;45.992;12.666;2023-04-24T08:36:47;13.10;;;7.83;;
41661;SDS011;27351;45.992;12.666;2023-04-24T08:39:13;11.90;;;7.40;;
41661;SDS011;27351;45.992;12.666;2023-04-24T08:41:39;13.98;;;8.07;;
41661;SDS011;27351;45.992;12.666;2023-04-24T08:44:08;12.82;;;7.90;;
41661;SDS011;27351;45.992;12.666;2023-04-24T08:46:34;13.63;;;8.00;;
41661;SDS011;27351;45.992;12.666;2023-04-24T08:49:01;16.95;;;8.38;;
41661;SDS011;27351;45.992;12.666;2023-04-24T08:51:27;12.85;;;7.50;;
41661;SDS011;27351;45.992;12.666;2023-04-24T08:53:54;14.80;;;8.57;;
41661;SDS011;27351;45.992;12.666;2023-04-24T08:56:20;16.10;;;8.60;;
41661;SDS011;27351;45.992;12.666;2023-04-24T08:58:50;14.23;;;7.22;;
41661;SDS011;27351;45.992;12.666;2023-04-24T09:01:15;11.13;;;6.88;;
41661;SDS011;27351;45.992;12.666;2023-04-24T09:03:41;12.32;;;6.72;;
41661;SDS011;27351;45.992;12.666;2023-04-24T09:06:08;14.00;;;6.53;;
41661;SDS011;27351;45.992;12.666;2023-04-24T09:08:35;14.30;;;7.15;;
41661;SDS011;27351;45.992;12.666;2023-04-24T09:11:01;14.63;;;7.90;;
41661;SDS011;27351;45.992;12.666;2023-04-24T09:13:29;13.95;;;5.80;;
41661;SDS011;27351;45.992;12.666;2023-04-24T09:15:54;7.60;;;2.60;;
41661;SDS011;27351;45.992;12.666;2023-04-24T09:18:22;4.22;;;1.42;;
41661;SDS011;27351;45.992;12.666;2023-04-24T09:21:04;4.37;;;1.00;;
41661;SDS011;27351;45.992;12.666;2023-04-24T09:23:32;5.90;;;1.80;;
41661;SDS011;27351;45.992;12.666;2023-04-24T09:25:58;4.77;;;1.23;;
41661;SDS011;27351;45.992;12.666;2023-04-24T09:28:26;4.35;;;1.30;;
41661;SDS011;27351;45.992;12.666;2023-04-24T09:33:36;3.40;;;0.70;;
41661;SDS011;27351;45.992;12.666;2023-04-24T09:36:02;3.08;;;0.90;;
41661;SDS011;27351;45.992;12.666;2023-04-24T09:38:35;3.33;;;1.10;;
41661;SDS011;27351;45.992;12.666;2023-04-24T09:41:01;3.57;;;1.10;;
41661;SDS011;27351;45.992;12.666;2023-04-24T09:43:28;3.23;;;0.80;;
41661;SDS011;27351;45.992;12.666;2023-04-24T09:45:57;2.35;;;0.70;;
41661;SDS011;27351;45.992;12.666;2023-04-24T09:48:33;2.92;;;0.60;;
41661;SDS011;27351;45.992;12.666;2023-04-24T09:51:00;2.10;;;0.90;;
41661;SDS011;27351;45.992;12.666;2023-04-24T09:53:27;1.30;;;0.60;;
41661;SDS011;27351;45.992;12.666;2023-04-24T09:55:52;0.70;;;0.40;;
41661;SDS011;27351;45.992;12.666;2023-04-24T09:58:24;1.50;;;0.60;;
41661;SDS011;27351;45.992;12.666;2023-04-24T10:00:49;1.58;;;0.50;;
41661;SDS011;27351;45.992;12.666;2023-04-24T10:03:18;3.03;;;0.50;;
41661;SDS011;27351;45.992;12.666;2023-04-24T10:05:44;0.70;;;0.40;;
41661;SDS011;27351;45.992;12.666;2023-04-24T10:08:11;0.80;;;0.40;;
41661;SDS011;27351;45.992;12.666;2023-04-24T10:10:41;0.70;;;0.30;;
41661;SDS011;27351;45.992;12.666;2023-04-24T10:13:08;0.60;;;0.25;;
41661;SDS011;27351;45.992;12.666;2023-04-24T10:15:34;0.43;;;0.20;;
41661;SDS011;27351;45.992;12.666;2023-04-24T10:18:00;0.32;;;0.20;;
41661;SDS011;27351;45.992;12.666;2023-04-24T10:20:27;0.73;;;0.30;;
41661;SDS011;27351;45.992;12.666;2023-04-24T10:22:55;1.50;;;0.30;;
41661;SDS011;27351;45.992;12.666;2023-04-24T10:25:22;1.13;;;0.20;;
41661;SDS011;27351;45.992;12.666;2023-04-24T10:27:48;0.10;;;0.10;;
41661;SDS011;27351;45.992;12.666;2023-04-24T10:30:14;0.30;;;0.10;;
41661;SDS011;27351;45.992;12.666;2023-04-24T10:32:40;0.88;;;0.20;;
41661;SDS011;27351;45.992;12.666;2023-04-24T10:35:06;0.87;;;0.30;;
41661;SDS011;27351;45.992;12.666;2023-04-24T10:37:35;1.10;;;0.20;;
41661;SDS011;27351;45.992;12.666;2023-04-24T10:40:02;0.20;;;0.20;;
41661;SDS011;27351;45.992;12.666;2023-04-24T10:42:28;0.37;;;0.20;;
41661;SDS011;27351;45.992;12.666;2023-04-24T10:44:53;2.00;;;0.30;;
41661;SDS011;27351;45.992;12.666;2023-04-24T10:47:20;1.38;;;0.20;;
41661;SDS011;27351;45.992;12.666;2023-04-24T10:49:46;0.40;;;0.20;;
41661;SDS011;27351;45.992;12.666;2023-04-24T10:52:11;0.67;;;0.30;;
41661;SDS011;27351;45.992;12.666;2023-04-24T10:59:44;0.32;;;0.30;;
41661;SDS011;27351;45.992;12.666;2023-04-24T11:02:10;1.00;;;0.20;;
41661;SDS011;27351;45.992;12.666;2023-04-24T11:04:35;0.55;;;0.20;;
41661;SDS011;27351;45.992;12.666;2023-04-24T11:07:04;0.60;;;0.30;;
41661;SDS011;27351;45.992;12.666;2023-04-24T11:09:30;1.42;;;0.28;;
41661;SDS011;27351;45.992;12.666;2023-04-24T11:12:11;0.40;;;0.20;;
41661;SDS011;27351;45.992;12.666;2023-04-24T11:17:30;1.50;;;0.20;;
41661;SDS011;27351;45.992;12.666;2023-04-24T11:20:07;0.40;;;0.20;;
41661;SDS011;27351;45.992;12.666;2023-04-24T11:22:34;0.93;;;0.15;;
41661;SDS011;27351;45.992;12.666;2023-04-24T11:25:03;0.40;;;0.20;;
41661;SDS011;27351;45.992;12.666;2023-04-24T11:27:31;0.77;;;0.25;;
41661;SDS011;27351;45.992;12.666;2023-04-24T11:34:51;0.10;;;0.10;;
41661;SDS011;27351;45.992;12.666;2023-04-24T11:37:17;0.30;;;0.10;;
41661;SDS011;27351;45.992;12.666;2023-04-24T11:39:43;0.40;;;0.20;;
41661;SDS011;27351;45.992;12.666;2023-04-24T11:42:08;0.70;;;0.20;;
41661;SDS011;27351;45.992;12.666;2023-04-24T11:44:34;0.17;;;0.10;;
41661;SDS011;27351;45.992;12.666;2023-04-24T11:47:04;0.73;;;0.15;;
41661;SDS011;27351;45.992;12.666;2023-04-24T11:49:29;0.28;;;0.10;;
41661;SDS011;27351;45.992;12.666;2023-04-24T11:51:55;0.60;;;0.28;;
41661;SDS011;27351;45.992;12.666;2023-04-24T11:54:21;1.93;;;0.90;;
41661;SDS011;27351;45.992;12.666;2023-04-24T11:56:47;1.00;;;0.50;;
41661;SDS011;27351;45.992;12.666;2023-04-24T11:59:13;1.80;;;0.80;;
41661;SDS011;27351;45.992;12.666;2023-04-24T12:01:45;0.80;;;0.40;;
41661;SDS011;27351;45.992;12.666;2023-04-24T12:04:11;1.80;;;0.40;;
41661;SDS011;27351;45.992;12.666;2023-04-24T12:06:37;0.25;;;0.20;;
41661;SDS011;27351;45.992;12.666;2023-04-24T12:09:02;1.93;;;0.30;;
41661;SDS011;27351;45.992;12.666;2023-04-24T12:11:28;0.60;;;0.20;;
41661;SDS011;27351;45.992;12.666;2023-04-24T12:13:54;0.10;;;0.10;;
41661;SDS011;27351;45.992;12.666;2023-04-24T12:16:19;0.30;;;0.10;;
41661;SDS011;27351;45.992;12.666;2023-04-24T12:18:45;0.43;;;0.20;;
41661;SDS011;27351;45.992;12.666;2023-04-24T12:23:43;0.65;;;0.40;;
41661;SDS011;27351;45.992;12.666;2023-04-24T12:26:08;0.40;;;0.10;;
41661;SDS011;27351;45.992;12.666;2023-04-24T12:28:35;0.10;;;0.10;;
41661;SDS011;27351;45.992;12.666;2023-04-24T12:31:01;10.00;;;5.22;;
41661;SDS011;27351;45.992;12.666;2023-04-24T12:33:26;1.17;;;0.53;;
41661;SDS011;27351;45.992;12.666;2023-04-24T12:35:52;1.75;;;0.73;;
41661;SDS011;27351;45.992;12.666;2023-04-24T12:38:22;4.55;;;1.90;;
41661;SDS011;27351;45.992;12.666;2023-04-24T12:40:47;2.10;;;0.93;;
41661;SDS011;27351;45.992;12.666;2023-04-24T12:43:17;2.75;;;0.60;;
41661;SDS011;27351;45.992;12.666;2023-04-24T12:45:43;0.70;;;0.40;;
41661;SDS011;27351;45.992;12.666;2023-04-24T12:48:10;7.13;;;3.50;;
41661;SDS011;27351;45.992;12.666;2023-04-24T12:50:36;2.60;;;1.40;;
41661;SDS011;27351;45.992;12.666;2023-04-24T12:53:01;1.52;;;0.50;;
41661;SDS011;27351;45.992;12.666;2023-04-24T12:55:27;2.07;;;1.10;;
41661;SDS011;27351;45.992;12.666;2023-04-24T12:57:53;4.00;;;1.90;;
41661;SDS011;27351;45.992;12.666;2023-04-24T13:00:20;2.85;;;1.33;;
41661;SDS011;27351;45.992;12.666;2023-04-24T13:02:46;2.90;;;1.50;;
41661;SDS011;27351;45.992;12.666;2023-04-24T13:05:12;2.20;;;1.42;;
41661;SDS011;27351;45.992;12.666;2023-04-24T13:07:39;3.33;;;1.02;;
41661;SDS011;27351;45.992;12.666;2023-04-24T13:10:05;1.00;;;0.60;;
41661;SDS011;27351;45.992;12.666;2023-04-24T13:12:31;1.85;;;0.90;;
41661;SDS011;27351;45.992;12.666;2023-04-24T13:14:58;1.50;;;0.77;;
41661;SDS011;27351;45.992;12.666;2023-04-24T13:17:24;1.30;;;0.40;;
41661;SDS011;27351;45.992;12.666;2023-04-24T13:19:50;0.90;;;0.20;;
41661;SDS011;27351;45.992;12.666;2023-04-24T13:22:16;0.40;;;0.30;;
41661;SDS011;27351;45.992;12.666;2023-04-24T13:24:43;1.10;;;0.82;;
41661;SDS011;27351;45.992;12.666;2023-04-24T13:27:09;0.75;;;0.55;;
41661;SDS011;27351;45.992;12.666;2023-04-24T13:29:35;0.70;;;0.45;;
41661;SDS011;27351;45.992;12.666;2023-04-24T13:32:01;0.70;;;0.40;;
41661;SDS011;27351;45.992;12.666;2023-04-24T13:34:27;0.30;;;0.28;;
41661;SDS011;27351;45.992;12.666;2023-04-24T13:36:54;1.05;;;0.20;;
41661;SDS011;27351;45.992;12.666;2023-04-24T13:39:20;0.93;;;0.32;;
41661;SDS011;27351;45.992;12.666;2023-04-24T13:41:46;0.82;;;0.40;;
41661;SDS011;27351;45.992;12.666;2023-04-24T13:44:16;0.10;;;0.10;;
41661;SDS011;27351;45.992;12.666;2023-04-24T13:46:42;0.10;;;0.10;;
41661;SDS011;27351;45.992;12.666;2023-04-24T13:49:10;1.33;;;0.10;;
41661;SDS011;27351;45.992;12.666;2023-04-24T13:51:36;0.60;;;0.30;;
41661;SDS011;27351;45.992;12.666;2023-04-24T13:54:01;1.17;;;0.30;;
41661;SDS011;27351;45.992;12.666;2023-04-24T13:56:27;0.40;;;0.20;;
41661;SDS011;27351;45.992;12.666;2023-04-24T13:58:53;0.60;;;0.30;;
41661;SDS011;27351;45.992;12.666;2023-04-24T14:01:20;1.70;;;1.10;;
41661;SDS011;27351;45.992;12.666;2023-04-24T14:03:46;1.67;;;0.80;;
41661;SDS011;27351;45.992;12.666;2023-04-24T14:06:12;1.02;;;0.55;;
41661;SDS011;27351;45.992;12.666;2023-04-24T14:08:37;1.23;;;0.95;;
41661;SDS011;27351;45.992;12.666;2023-04-24T14:11:03;1.43;;;0.70;;
41661;SDS011;27351;45.992;12.666;2023-04-24T14:13:29;3.63;;;1.73;;
41661;SDS011;27351;45.992;12.666;2023-04-24T14:15:55;5.53;;;2.28;;
41661;SDS011;27351;45.992;12.666;2023-04-24T14:18:20;3.00;;;1.23;;
41661;SDS011;27351;45.992;12.666;2023-04-24T14:20:46;0.87;;;0.60;;
41661;SDS011;27351;45.992;12.666;2023-04-24T14:23:11;1.80;;;0.20;;
41661;SDS011;27351;45.992;12.666;2023-04-24T14:25:37;1.30;;;0.40;;
41661;SDS011;27351;45.992;12.666;2023-04-24T14:28:03;0.50;;;0.30;;
41661;SDS011;27351;45.992;12.666;2023-04-24T14:30:28;0.90;;;0.40;;
41661;SDS011;27351;45.992;12.666;2023-04-24T14:32:54;1.52;;;0.30;;
41661;SDS011;27351;45.992;12.666;2023-04-24T14:35:20;0.95;;;0.47;;
41661;SDS011;27351;45.992;12.666;2023-04-24T14:37:45;0.85;;;0.40;;
41661;SDS011;27351;45.992;12.666;2023-04-24T14:40:11;1.10;;;0.50;;
41661;SDS011;27351;45.992;12.666;2023-04-24T14:42:36;0.77;;;0.30;;
41661;SDS011;27351;45.992;12.666;2023-04-24T14:45:02;0.63;;;0.30;;